sensor_id;sensor_type;location;lat;lon;timestamp;temperature;humidity
9151;DHT22;4610;50.006;7.490;2022-11-21T00:02:50;4.70;99.90
9151;DHT22;4610;50.006;7.490;2022-11-21T00:05:18;4.70;99.90
9151;DHT22;4610;50.006;7.490;2022-11-21T00:07:45;4.70;99.90
9151;DHT22;4610;50.006;7.490;2022-11-21T00:10:14;4.70;99.90
9151;DHT22;4610;50.006;7.490;2022-11-21T00:12:41;5.00;99.90
9151;DHT22;4610;50.006;7.490;2022-11-21T00:15:09;5.60;99.90
9151;DHT22;4610;50.006;7.490;2022-11-21T00:17:36;4.70;99.90
9151;DHT22;4610;50.006;7.490;2022-11-21T00:20:05;4.90;99.90
9151;DHT22;4610;50.006;7.490;2022-11-21T00:22:32;4.90;99.90
9151;DHT22;4610;50.006;7.490;2022-11-21T00:24:59;5.40;99.90
9151;DHT22;4610;50.006;7.490;2022-11-21T00:27:25;5.40;99.90
9151;DHT22;4610;50.006;7.490;2022-11-21T00:29:52;4.80;99.90
9151;DHT22;4610;50.006;7.490;2022-11-21T00:32:19;5.30;99.90
9151;DHT22;4610;50.006;7.490;2022-11-21T00:34:46;4.90;99.90
9151;DHT22;4610;50.006;7.490;2022-11-21T00:37:14;5.40;99.90
9151;DHT22;4610;50.006;7.490;2022-11-21T00:39:41;4.70;99.90
9151;DHT22;4610;50.006;7.490;2022-11-21T00:42:08;5.20;99.90
9151;DHT22;4610;50.006;7.490;2022-11-21T00:44:36;5.00;99.90
9151;DHT22;4610;50.006;7.490;2022-11-21T00:47:03;5.40;99.90
9151;DHT22;4610;50.006;7.490;2022-11-21T00:51:58;5.20;99.90
9151;DHT22;4610;50.006;7.490;2022-11-21T00:54:26;5.30;99.90
9151;DHT22;4610;50.006;7.490;2022-11-21T00:59:20;5.40;99.90
9151;DHT22;4610;50.006;7.490;2022-11-21T01:01:47;5.10;99.90
9151;DHT22;4610;50.006;7.490;2022-11-21T01:04:15;5.20;99.90
9151;DHT22;4610;50.006;7.490;2022-11-21T01:09:09;5.20;99.90
9151;DHT22;4610;50.006;7.490;2022-11-21T01:11:37;5.60;99.90
9151;DHT22;4610;50.006;7.490;2022-11-21T01:14:04;5.20;99.90
9151;DHT22;4610;50.006;7.490;2022-11-21T01:16:31;5.40;99.90
9151;DHT22;4610;50.006;7.490;2022-11-21T01:18:58;5.60;99.90
9151;DHT22;4610;50.006;7.490;2022-11-21T01:21:26;5.50;99.90
9151;DHT22;4610;50.006;7.490;2022-11-21T01:23:53;5.70;99.90
9151;DHT22;4610;50.006;7.490;2022-11-21T01:26:22;5.30;99.90
9151;DHT22;4610;50.006;7.490;2022-11-21T01:28:51;5.70;99.90
9151;DHT22;4610;50.006;7.490;2022-11-21T01:31:19;5.30;99.90
9151;DHT22;4610;50.006;7.490;2022-11-21T01:33:47;5.90;99.90
9151;DHT22;4610;50.006;7.490;2022-11-21T01:36:16;5.70;99.90
9151;DHT22;4610;50.006;7.490;2022-11-21T01:38:44;5.40;99.90
9151;DHT22;4610;50.006;7.490;2022-11-21T01:41:13;5.70;99.90
9151;DHT22;4610;50.006;7.490;2022-11-21T01:43:40;5.60;99.90
9151;DHT22;4610;50.006;7.490;2022-11-21T01:46:13;5.70;99.90
9151;DHT22;4610;50.006;7.490;2022-11-21T01:48:44;5.90;99.90
9151;DHT22;4610;50.006;7.490;2022-11-21T01:51:15;5.90;99.90
9151;DHT22;4610;50.006;7.490;2022-11-21T01:53:47;5.80;99.90
9151;DHT22;4610;50.006;7.490;2022-11-21T01:56:16;5.80;99.90
9151;DHT22;4610;50.006;7.490;2022-11-21T01:58:44;5.60;99.90
9151;DHT22;4610;50.006;7.490;2022-11-21T02:01:13;5.50;99.90
9151;DHT22;4610;50.006;7.490;2022-11-21T02:03:41;5.50;99.90
9151;DHT22;4610;50.006;7.490;2022-11-21T02:06:10;5.60;99.90
9151;DHT22;4610;50.006;7.490;2022-11-21T02:08:38;5.30;99.90
9151;DHT22;4610;50.006;7.490;2022-11-21T02:11:10;5.30;99.90
9151;DHT22;4610;50.006;7.490;2022-11-21T02:16:05;4.90;99.90
9151;DHT22;4610;50.006;7.490;2022-11-21T02:18:34;5.30;99.90
9151;DHT22;4610;50.006;7.490;2022-11-21T02:21:05;5.00;99.90
9151;DHT22;4610;50.006;7.490;2022-11-21T02:23:39;4.90;99.90
9151;DHT22;4610;50.006;7.490;2022-11-21T02:26:09;4.60;99.90
9151;DHT22;4610;50.006;7.490;2022-11-21T02:28:36;4.80;99.90
9151;DHT22;4610;50.006;7.490;2022-11-21T02:31:03;4.90;99.90
9151;DHT22;4610;50.006;7.490;2022-11-21T02:33:30;4.90;99.90
9151;DHT22;4610;50.006;7.490;2022-11-21T02:35:57;4.60;99.90
9151;DHT22;4610;50.006;7.490;2022-11-21T02:38:28;4.70;99.90
9151;DHT22;4610;50.006;7.490;2022-11-21T02:41:01;4.80;99.90
9151;DHT22;4610;50.006;7.490;2022-11-21T02:43:32;4.90;99.90
9151;DHT22;4610;50.006;7.490;2022-11-21T02:48:28;5.10;99.90
9151;DHT22;4610;50.006;7.490;2022-11-21T02:50:55;4.90;99.90
9151;DHT22;4610;50.006;7.490;2022-11-21T02:53:22;5.20;99.90
9151;DHT22;4610;50.006;7.490;2022-11-21T02:55:49;5.30;99.90
9151;DHT22;4610;50.006;7.490;2022-11-21T02:58:16;4.90;99.90
9151;DHT22;4610;50.006;7.490;2022-11-21T03:00:45;4.90;99.90
9151;DHT22;4610;50.006;7.490;2022-11-21T03:03:12;5.20;99.90
9151;DHT22;4610;50.006;7.490;2022-11-21T03:05:39;5.10;99.90
9151;DHT22;4610;50.006;7.490;2022-11-21T03:08:06;4.90;99.90
9151;DHT22;4610;50.006;7.490;2022-11-21T03:10:35;5.00;99.90
9151;DHT22;4610;50.006;7.490;2022-11-21T03:13:02;5.30;99.90
9151;DHT22;4610;50.006;7.490;2022-11-21T03:15:31;5.00;99.90
9151;DHT22;4610;50.006;7.490;2022-11-21T03:18:00;5.10;99.90
9151;DHT22;4610;50.006;7.490;2022-11-21T03:20:27;5.10;99.90
9151;DHT22;4610;50.006;7.490;2022-11-21T03:22:54;4.70;99.90
9151;DHT22;4610;50.006;7.490;2022-11-21T03:25:21;5.10;99.90
9151;DHT22;4610;50.006;7.490;2022-11-21T03:27:50;5.10;99.90
9151;DHT22;4610;50.006;7.490;2022-11-21T03:30:18;5.10;99.90
9151;DHT22;4610;50.006;7.490;2022-11-21T03:32:45;4.80;99.90
9151;DHT22;4610;50.006;7.490;2022-11-21T03:35:13;4.50;99.90
9151;DHT22;4610;50.006;7.490;2022-11-21T03:37:40;4.70;99.90
9151;DHT22;4610;50.006;7.490;2022-11-21T03:40:08;4.70;99.90
9151;DHT22;4610;50.006;7.490;2022-11-21T03:45:02;4.50;99.90
9151;DHT22;4610;50.006;7.490;2022-11-21T03:47:29;4.60;99.90
9151;DHT22;4610;50.006;7.490;2022-11-21T03:49:56;4.60;99.90
9151;DHT22;4610;50.006;7.490;2022-11-21T03:52:24;4.60;99.90
9151;DHT22;4610;50.006;7.490;2022-11-21T03:54:51;4.90;99.90
9151;DHT22;4610;50.006;7.490;2022-11-21T03:57:18;4.30;99.90
9151;DHT22;4610;50.006;7.490;2022-11-21T03:59:45;4.80;99.90
9151;DHT22;4610;50.006;7.490;2022-11-21T04:02:11;5.10;99.90
9151;DHT22;4610;50.006;7.490;2022-11-21T04:04:38;4.80;99.90
9151;DHT22;4610;50.006;7.490;2022-11-21T04:07:05;4.80;99.90
9151;DHT22;4610;50.006;7.490;2022-11-21T04:09:33;4.60;99.90
9151;DHT22;4610;50.006;7.490;2022-11-21T04:12:00;4.80;99.90
9151;DHT22;4610;50.006;7.490;2022-11-21T04:16:54;5.00;99.90
9151;DHT22;4610;50.006;7.490;2022-11-21T04:19:21;5.00;99.90
9151;DHT22;4610;50.006;7.490;2022-11-21T04:21:47;5.20;99.90
9151;DHT22;4610;50.006;7.490;2022-11-21T04:24:14;5.20;99.90
9151;DHT22;4610;50.006;7.490;2022-11-21T04:26:42;5.60;99.90
9151;DHT22;4610;50.006;7.490;2022-11-21T04:29:09;5.30;99.90
9151;DHT22;4610;50.006;7.490;2022-11-21T04:31:36;5.20;99.90
9151;DHT22;4610;50.006;7.490;2022-11-21T04:34:03;5.50;99.90
9151;DHT22;4610;50.006;7.490;2022-11-21T04:36:30;5.20;99.90
9151;DHT22;4610;50.006;7.490;2022-11-21T04:38:56;5.50;99.90
9151;DHT22;4610;50.006;7.490;2022-11-21T04:41:23;5.50;99.90
9151;DHT22;4610;50.006;7.490;2022-11-21T04:43:52;5.50;99.90
9151;DHT22;4610;50.006;7.490;2022-11-21T04:46:19;5.30;99.90
9151;DHT22;4610;50.006;7.490;2022-11-21T04:48:46;5.50;99.90
9151;DHT22;4610;50.006;7.490;2022-11-21T04:51:12;5.10;99.90
9151;DHT22;4610;50.006;7.490;2022-11-21T04:53:39;4.90;99.90
9151;DHT22;4610;50.006;7.490;2022-11-21T04:56:06;4.70;99.90
9151;DHT22;4610;50.006;7.490;2022-11-21T04:58:33;4.90;99.90
9151;DHT22;4610;50.006;7.490;2022-11-21T05:01:05;4.60;99.90
9151;DHT22;4610;50.006;7.490;2022-11-21T05:03:33;4.30;99.90
9151;DHT22;4610;50.006;7.490;2022-11-21T05:08:27;4.80;99.90
9151;DHT22;4610;50.006;7.490;2022-11-21T05:10:54;4.80;99.90
9151;DHT22;4610;50.006;7.490;2022-11-21T05:16:06;5.10;99.90
9151;DHT22;4610;50.006;7.490;2022-11-21T05:18:33;5.30;99.90
9151;DHT22;4610;50.006;7.490;2022-11-21T05:21:00;4.90;99.90
9151;DHT22;4610;50.006;7.490;2022-11-21T05:23:27;5.00;99.90
9151;DHT22;4610;50.006;7.490;2022-11-21T05:25:54;5.40;99.90
9151;DHT22;4610;50.006;7.490;2022-11-21T05:30:48;4.70;99.90
9151;DHT22;4610;50.006;7.490;2022-11-21T05:33:16;4.60;99.90
9151;DHT22;4610;50.006;7.490;2022-11-21T05:38:10;4.80;99.90
9151;DHT22;4610;50.006;7.490;2022-11-21T05:40:38;4.70;99.90
9151;DHT22;4610;50.006;7.490;2022-11-21T05:43:04;4.60;99.90
9151;DHT22;4610;50.006;7.490;2022-11-21T05:45:49;4.70;99.90
9151;DHT22;4610;50.006;7.490;2022-11-21T05:48:17;4.80;99.90
9151;DHT22;4610;50.006;7.490;2022-11-21T05:50:46;4.80;99.90
9151;DHT22;4610;50.006;7.490;2022-11-21T05:53:14;4.60;99.90
9151;DHT22;4610;50.006;7.490;2022-11-21T05:58:08;5.00;99.90
9151;DHT22;4610;50.006;7.490;2022-11-21T06:00:36;4.90;99.90
9151;DHT22;4610;50.006;7.490;2022-11-21T06:05:48;4.80;99.90
9151;DHT22;4610;50.006;7.490;2022-11-21T06:08:15;4.90;99.90
9151;DHT22;4610;50.006;7.490;2022-11-21T06:10:42;5.30;99.90
9151;DHT22;4610;50.006;7.490;2022-11-21T06:13:08;5.30;99.90
9151;DHT22;4610;50.006;7.490;2022-11-21T06:15:48;5.10;99.90
9151;DHT22;4610;50.006;7.490;2022-11-21T06:18:15;5.30;99.90
9151;DHT22;4610;50.006;7.490;2022-11-21T06:20:42;4.90;99.90
9151;DHT22;4610;50.006;7.490;2022-11-21T06:23:10;4.90;99.90
9151;DHT22;4610;50.006;7.490;2022-11-21T06:25:37;5.40;99.90
9151;DHT22;4610;50.006;7.490;2022-11-21T06:28:03;5.20;99.90
9151;DHT22;4610;50.006;7.490;2022-11-21T06:30:30;5.50;99.90
9151;DHT22;4610;50.006;7.490;2022-11-21T06:32:57;5.10;99.90
9151;DHT22;4610;50.006;7.490;2022-11-21T06:35:24;5.10;99.90
9151;DHT22;4610;50.006;7.490;2022-11-21T06:37:51;5.50;99.90
9151;DHT22;4610;50.006;7.490;2022-11-21T06:40:19;5.50;99.90
9151;DHT22;4610;50.006;7.490;2022-11-21T06:42:45;5.90;99.90
9151;DHT22;4610;50.006;7.490;2022-11-21T06:45:12;5.40;99.90
9151;DHT22;4610;50.006;7.490;2022-11-21T06:47:39;5.50;99.90
9151;DHT22;4610;50.006;7.490;2022-11-21T06:50:07;5.40;99.90
9151;DHT22;4610;50.006;7.490;2022-11-21T06:55:01;5.20;99.90
9151;DHT22;4610;50.006;7.490;2022-11-21T06:57:29;5.90;99.90
9151;DHT22;4610;50.006;7.490;2022-11-21T06:59:57;5.50;99.90
9151;DHT22;4610;50.006;7.490;2022-11-21T07:02:24;5.50;99.90
9151;DHT22;4610;50.006;7.490;2022-11-21T07:04:51;5.20;99.90
9151;DHT22;4610;50.006;7.490;2022-11-21T07:07:18;5.10;99.90
9151;DHT22;4610;50.006;7.490;2022-11-21T07:09:45;4.90;99.90
9151;DHT22;4610;50.006;7.490;2022-11-21T07:12:12;5.30;99.90
9151;DHT22;4610;50.006;7.490;2022-11-21T07:14:58;5.20;99.90
9151;DHT22;4610;50.006;7.490;2022-11-21T07:17:24;5.40;99.90
9151;DHT22;4610;50.006;7.490;2022-11-21T07:22:18;5.30;99.90
9151;DHT22;4610;50.006;7.490;2022-11-21T07:24:45;5.30;99.90
9151;DHT22;4610;50.006;7.490;2022-11-21T07:29:39;5.20;99.90
9151;DHT22;4610;50.006;7.490;2022-11-21T07:32:08;5.70;99.90
9151;DHT22;4610;50.006;7.490;2022-11-21T07:37:02;5.70;99.90
9151;DHT22;4610;50.006;7.490;2022-11-21T07:39:28;5.50;99.90
9151;DHT22;4610;50.006;7.490;2022-11-21T07:41:55;5.30;99.90
9151;DHT22;4610;50.006;7.490;2022-11-21T07:44:22;5.60;99.90
9151;DHT22;4610;50.006;7.490;2022-11-21T07:46:53;5.50;99.90
9151;DHT22;4610;50.006;7.490;2022-11-21T07:49:21;5.70;99.90
9151;DHT22;4610;50.006;7.490;2022-11-21T07:51:48;5.60;99.90
9151;DHT22;4610;50.006;7.490;2022-11-21T07:54:15;5.60;99.90
9151;DHT22;4610;50.006;7.490;2022-11-21T07:59:09;5.50;99.90
9151;DHT22;4610;50.006;7.490;2022-11-21T08:04:03;5.70;99.90
9151;DHT22;4610;50.006;7.490;2022-11-21T08:06:33;5.40;99.90
9151;DHT22;4610;50.006;7.490;2022-11-21T08:09:00;5.30;99.90
9151;DHT22;4610;50.006;7.490;2022-11-21T08:11:27;5.10;99.90
9151;DHT22;4610;50.006;7.490;2022-11-21T08:13:56;5.40;99.90
9151;DHT22;4610;50.006;7.490;2022-11-21T08:16:23;5.50;99.90
9151;DHT22;4610;50.006;7.490;2022-11-21T08:18:52;5.90;99.90
9151;DHT22;4610;50.006;7.490;2022-11-21T08:21:21;6.10;99.90
9151;DHT22;4610;50.006;7.490;2022-11-21T08:23:49;5.70;99.90
9151;DHT22;4610;50.006;7.490;2022-11-21T08:26:16;5.70;99.90
9151;DHT22;4610;50.006;7.490;2022-11-21T08:28:43;5.40;99.90
9151;DHT22;4610;50.006;7.490;2022-11-21T08:31:11;5.90;99.90
9151;DHT22;4610;50.006;7.490;2022-11-21T08:33:38;5.90;99.90
9151;DHT22;4610;50.006;7.490;2022-11-21T08:36:05;6.00;99.90
9151;DHT22;4610;50.006;7.490;2022-11-21T08:38:33;5.90;99.90
9151;DHT22;4610;50.006;7.490;2022-11-21T08:41:01;5.90;99.90
9151;DHT22;4610;50.006;7.490;2022-11-21T08:43:46;5.70;99.90
9151;DHT22;4610;50.006;7.490;2022-11-21T08:48:40;6.10;99.90
9151;DHT22;4610;50.006;7.490;2022-11-21T08:51:06;5.60;99.90
9151;DHT22;4610;50.006;7.490;2022-11-21T08:53:33;6.40;99.90
9151;DHT22;4610;50.006;7.490;2022-11-21T08:56:01;6.50;99.90
9151;DHT22;4610;50.006;7.490;2022-11-21T08:58:28;6.60;99.90
9151;DHT22;4610;50.006;7.490;2022-11-21T09:00:55;6.30;99.90
9151;DHT22;4610;50.006;7.490;2022-11-21T09:08:17;7.00;99.90
9151;DHT22;4610;50.006;7.490;2022-11-21T09:10:43;7.10;99.90
9151;DHT22;4610;50.006;7.490;2022-11-21T09:13:12;7.40;99.90
9151;DHT22;4610;50.006;7.490;2022-11-21T09:15:38;8.20;99.90
9151;DHT22;4610;50.006;7.490;2022-11-21T09:18:23;8.30;99.90
9151;DHT22;4610;50.006;7.490;2022-11-21T09:20:50;8.80;99.90
9151;DHT22;4610;50.006;7.490;2022-11-21T09:25:44;10.80;99.90
9151;DHT22;4610;50.006;7.490;2022-11-21T09:28:13;10.80;99.90
9151;DHT22;4610;50.006;7.490;2022-11-21T09:30:41;10.70;99.90
9151;DHT22;4610;50.006;7.490;2022-11-21T09:33:10;10.40;99.90
9151;DHT22;4610;50.006;7.490;2022-11-21T09:35:38;9.90;99.90
9151;DHT22;4610;50.006;7.490;2022-11-21T09:40:34;9.50;99.90
9151;DHT22;4610;50.006;7.490;2022-11-21T09:43:25;9.90;99.90
9151;DHT22;4610;50.006;7.490;2022-11-21T09:46:00;9.90;99.90
9151;DHT22;4610;50.006;7.490;2022-11-21T09:48:32;10.20;99.90
9151;DHT22;4610;50.006;7.490;2022-11-21T09:51:03;10.30;99.90
9151;DHT22;4610;50.006;7.490;2022-11-21T09:53:33;9.90;99.90
9151;DHT22;4610;50.006;7.490;2022-11-21T09:56:06;10.50;99.90
9151;DHT22;4610;50.006;7.490;2022-11-21T09:58:40;10.90;99.90
9151;DHT22;4610;50.006;7.490;2022-11-21T10:01:10;10.80;99.90
9151;DHT22;4610;50.006;7.490;2022-11-21T10:03:41;10.70;99.90
9151;DHT22;4610;50.006;7.490;2022-11-21T10:06:16;10.40;99.90
9151;DHT22;4610;50.006;7.490;2022-11-21T10:08:52;10.80;99.90
9151;DHT22;4610;50.006;7.490;2022-11-21T10:11:25;11.30;99.90
9151;DHT22;4610;50.006;7.490;2022-11-21T10:14:08;10.90;99.90
9151;DHT22;4610;50.006;7.490;2022-11-21T10:16:43;10.70;99.90
9151;DHT22;4610;50.006;7.490;2022-11-21T10:19:23;10.20;99.90
9151;DHT22;4610;50.006;7.490;2022-11-21T10:22:24;10.00;99.90
9151;DHT22;4610;50.006;7.490;2022-11-21T10:25:02;10.00;99.90
9151;DHT22;4610;50.006;7.490;2022-11-21T10:27:39;9.00;99.90
9151;DHT22;4610;50.006;7.490;2022-11-21T10:30:15;9.30;99.90
9151;DHT22;4610;50.006;7.490;2022-11-21T10:32:46;9.50;99.90
9151;DHT22;4610;50.006;7.490;2022-11-21T10:35:15;9.70;99.90
9151;DHT22;4610;50.006;7.490;2022-11-21T10:37:47;9.30;99.90
9151;DHT22;4610;50.006;7.490;2022-11-21T10:40:27;9.00;99.90
9151;DHT22;4610;50.006;7.490;2022-11-21T10:42:59;8.90;99.90
9151;DHT22;4610;50.006;7.490;2022-11-21T10:45:48;8.50;99.90
9151;DHT22;4610;50.006;7.490;2022-11-21T10:50:49;8.60;99.90
9151;DHT22;4610;50.006;7.490;2022-11-21T10:53:20;8.60;99.90
9151;DHT22;4610;50.006;7.490;2022-11-21T10:56:07;8.30;99.90
9151;DHT22;4610;50.006;7.490;2022-11-21T10:58:40;8.50;99.90
9151;DHT22;4610;50.006;7.490;2022-11-21T11:01:24;8.00;99.90
9151;DHT22;4610;50.006;7.490;2022-11-21T11:04:15;8.00;99.90
9151;DHT22;4610;50.006;7.490;2022-11-21T11:06:43;7.70;99.90
9151;DHT22;4610;50.006;7.490;2022-11-21T11:09:21;8.00;99.90
9151;DHT22;4610;50.006;7.490;2022-11-21T11:11:48;7.80;99.90
9151;DHT22;4610;50.006;7.490;2022-11-21T11:14:29;7.60;99.90
9151;DHT22;4610;50.006;7.490;2022-11-21T11:16:58;7.30;99.90
9151;DHT22;4610;50.006;7.490;2022-11-21T11:19:27;7.60;99.90
9151;DHT22;4610;50.006;7.490;2022-11-21T11:24:23;8.10;99.90
9151;DHT22;4610;50.006;7.490;2022-11-21T11:26:56;7.90;99.90
9151;DHT22;4610;50.006;7.490;2022-11-21T11:29:24;7.90;99.90
9151;DHT22;4610;50.006;7.490;2022-11-21T11:31:54;8.20;99.90
9151;DHT22;4610;50.006;7.490;2022-11-21T11:34:25;8.20;99.90
9151;DHT22;4610;50.006;7.490;2022-11-21T11:36:55;8.50;99.90
9151;DHT22;4610;50.006;7.490;2022-11-21T11:39:34;8.50;99.90
9151;DHT22;4610;50.006;7.490;2022-11-21T11:42:23;9.10;99.90
9151;DHT22;4610;50.006;7.490;2022-11-21T11:45:26;8.80;99.90
9151;DHT22;4610;50.006;7.490;2022-11-21T11:48:14;8.80;99.90
9151;DHT22;4610;50.006;7.490;2022-11-21T11:50:48;8.70;99.90
9151;DHT22;4610;50.006;7.490;2022-11-21T11:53:19;9.20;99.90
9151;DHT22;4610;50.006;7.490;2022-11-21T11:55:50;9.00;99.90
9151;DHT22;4610;50.006;7.490;2022-11-21T11:58:24;9.40;99.90
9151;DHT22;4610;50.006;7.490;2022-11-21T12:00:58;9.30;99.90
9151;DHT22;4610;50.006;7.490;2022-11-21T12:03:34;9.00;99.90
9151;DHT22;4610;50.006;7.490;2022-11-21T12:06:10;9.20;99.90
9151;DHT22;4610;50.006;7.490;2022-11-21T12:08:43;8.80;99.90
9151;DHT22;4610;50.006;7.490;2022-11-21T12:11:24;8.90;99.90
9151;DHT22;4610;50.006;7.490;2022-11-21T12:14:19;9.00;99.90
9151;DHT22;4610;50.006;7.490;2022-11-21T12:17:05;8.50;99.90
9151;DHT22;4610;50.006;7.490;2022-11-21T12:19:33;8.90;99.90
9151;DHT22;4610;50.006;7.490;2022-11-21T12:22:02;8.60;99.90
9151;DHT22;4610;50.006;7.490;2022-11-21T12:24:31;8.80;99.90
9151;DHT22;4610;50.006;7.490;2022-11-21T12:27:04;8.80;99.90
9151;DHT22;4610;50.006;7.490;2022-11-21T12:29:42;8.70;99.90
9151;DHT22;4610;50.006;7.490;2022-11-21T12:32:32;8.60;99.90
9151;DHT22;4610;50.006;7.490;2022-11-21T12:35:16;8.50;99.90
9151;DHT22;4610;50.006;7.490;2022-11-21T12:37:54;8.90;99.90
9151;DHT22;4610;50.006;7.490;2022-11-21T12:40:36;8.40;99.90
9151;DHT22;4610;50.006;7.490;2022-11-21T12:43:18;8.70;99.90
9151;DHT22;4610;50.006;7.490;2022-11-21T12:45:49;8.50;99.90
9151;DHT22;4610;50.006;7.490;2022-11-21T12:48:19;8.30;99.90
9151;DHT22;4610;50.006;7.490;2022-11-21T12:51:19;8.60;99.90
9151;DHT22;4610;50.006;7.490;2022-11-21T12:54:19;8.30;99.90
9151;DHT22;4610;50.006;7.490;2022-11-21T12:57:07;8.50;99.90
9151;DHT22;4610;50.006;7.490;2022-11-21T12:59:44;8.50;99.90
9151;DHT22;4610;50.006;7.490;2022-11-21T13:02:22;8.20;99.90
9151;DHT22;4610;50.006;7.490;2022-11-21T13:04:51;8.30;99.90
9151;DHT22;4610;50.006;7.490;2022-11-21T13:07:19;8.60;99.90
9151;DHT22;4610;50.006;7.490;2022-11-21T13:09:52;8.70;99.90
9151;DHT22;4610;50.006;7.490;2022-11-21T13:12:27;8.70;99.90
9151;DHT22;4610;50.006;7.490;2022-11-21T13:15:03;8.40;99.90
9151;DHT22;4610;50.006;7.490;2022-11-21T13:17:42;8.90;99.90
9151;DHT22;4610;50.006;7.490;2022-11-21T13:20:23;8.30;99.90
9151;DHT22;4610;50.006;7.490;2022-11-21T13:22:57;8.40;99.90
9151;DHT22;4610;50.006;7.490;2022-11-21T13:25:41;8.50;99.90
9151;DHT22;4610;50.006;7.490;2022-11-21T13:28:31;7.90;99.90
9151;DHT22;4610;50.006;7.490;2022-11-21T13:31:00;8.20;99.90
9151;DHT22;4610;50.006;7.490;2022-11-21T13:33:51;8.30;99.90
9151;DHT22;4610;50.006;7.490;2022-11-21T13:36:40;8.60;99.90
9151;DHT22;4610;50.006;7.490;2022-11-21T13:39:32;8.50;99.90
9151;DHT22;4610;50.006;7.490;2022-11-21T13:42:06;8.30;99.90
9151;DHT22;4610;50.006;7.490;2022-11-21T13:44:51;8.50;99.90
9151;DHT22;4610;50.006;7.490;2022-11-21T13:47:55;8.50;99.90
9151;DHT22;4610;50.006;7.490;2022-11-21T13:50:40;7.80;99.90
9151;DHT22;4610;50.006;7.490;2022-11-21T13:53:20;7.60;99.90
9151;DHT22;4610;50.006;7.490;2022-11-21T13:55:56;7.80;99.90
9151;DHT22;4610;50.006;7.490;2022-11-21T13:58:36;7.60;99.90
9151;DHT22;4610;50.006;7.490;2022-11-21T14:04:22;7.30;99.90
9151;DHT22;4610;50.006;7.490;2022-11-21T14:09:24;7.10;99.90
9151;DHT22;4610;50.006;7.490;2022-11-21T14:11:55;7.20;99.90
9151;DHT22;4610;50.006;7.490;2022-11-21T14:14:26;7.40;99.90
9151;DHT22;4610;50.006;7.490;2022-11-21T14:17:11;7.00;99.90
9151;DHT22;4610;50.006;7.490;2022-11-21T14:19:41;7.00;99.90
9151;DHT22;4610;50.006;7.490;2022-11-21T14:22:15;7.00;99.90
9151;DHT22;4610;50.006;7.490;2022-11-21T14:24:42;7.20;99.90
9151;DHT22;4610;50.006;7.490;2022-11-21T14:27:17;6.90;99.90
9151;DHT22;4610;50.006;7.490;2022-11-21T14:29:49;6.90;99.90
9151;DHT22;4610;50.006;7.490;2022-11-21T14:32:16;7.20;99.90
9151;DHT22;4610;50.006;7.490;2022-11-21T14:34:51;7.10;99.90
9151;DHT22;4610;50.006;7.490;2022-11-21T14:37:18;7.30;99.90
9151;DHT22;4610;50.006;7.490;2022-11-21T14:39:46;7.10;99.90
9151;DHT22;4610;50.006;7.490;2022-11-21T14:42:14;6.90;99.90
9151;DHT22;4610;50.006;7.490;2022-11-21T14:47:18;6.80;99.90
9151;DHT22;4610;50.006;7.490;2022-11-21T14:49:50;6.60;99.90
9151;DHT22;4610;50.006;7.490;2022-11-21T14:52:20;6.60;99.90
9151;DHT22;4610;50.006;7.490;2022-11-21T14:54:51;6.30;99.90
9151;DHT22;4610;50.006;7.490;2022-11-21T14:57:21;4.30;99.90
9151;DHT22;4610;50.006;7.490;2022-11-21T15:02:20;6.30;99.90
9151;DHT22;4610;50.006;7.490;2022-11-21T15:04:49;6.20;99.90
9151;DHT22;4610;50.006;7.490;2022-11-21T15:07:19;6.30;99.90
9151;DHT22;4610;50.006;7.490;2022-11-21T15:12:20;6.20;99.90
9151;DHT22;4610;50.006;7.490;2022-11-21T15:14:49;6.10;99.90
9151;DHT22;4610;50.006;7.490;2022-11-21T15:17:21;6.10;99.90
9151;DHT22;4610;50.006;7.490;2022-11-21T15:20:03;5.90;99.90
9151;DHT22;4610;50.006;7.490;2022-11-21T15:22:34;6.00;99.90
9151;DHT22;4610;50.006;7.490;2022-11-21T15:25:06;6.00;99.90
9151;DHT22;4610;50.006;7.490;2022-11-21T15:27:34;6.00;99.90
9151;DHT22;4610;50.006;7.490;2022-11-21T15:30:04;5.40;99.90
9151;DHT22;4610;50.006;7.490;2022-11-21T15:33:01;5.90;99.90
9151;DHT22;4610;50.006;7.490;2022-11-21T15:35:42;5.80;99.90
9151;DHT22;4610;50.006;7.490;2022-11-21T15:38:24;6.20;99.90
9151;DHT22;4610;50.006;7.490;2022-11-21T15:40:58;6.00;99.90
9151;DHT22;4610;50.006;7.490;2022-11-21T15:43:36;6.00;99.90
9151;DHT22;4610;50.006;7.490;2022-11-21T15:46:08;5.90;99.90
9151;DHT22;4610;50.006;7.490;2022-11-21T15:48:38;5.80;99.90
9151;DHT22;4610;50.006;7.490;2022-11-21T15:51:07;5.50;99.90
9151;DHT22;4610;50.006;7.490;2022-11-21T16:00:55;5.50;99.90
9151;DHT22;4610;50.006;7.490;2022-11-21T16:05:51;5.50;99.90
9151;DHT22;4610;50.006;7.490;2022-11-21T16:10:45;5.40;99.90
9151;DHT22;4610;50.006;7.490;2022-11-21T16:15:40;5.20;99.90
9151;DHT22;4610;50.006;7.490;2022-11-21T16:18:07;5.10;99.90
9151;DHT22;4610;50.006;7.490;2022-11-21T16:20:34;5.20;99.90
9151;DHT22;4610;50.006;7.490;2022-11-21T16:23:03;5.20;99.90
9151;DHT22;4610;50.006;7.490;2022-11-21T16:25:30;5.20;99.90
9151;DHT22;4610;50.006;7.490;2022-11-21T16:27:57;5.20;99.90
9151;DHT22;4610;50.006;7.490;2022-11-21T16:32:51;5.20;99.90
9151;DHT22;4610;50.006;7.490;2022-11-21T16:35:20;5.20;99.90
9151;DHT22;4610;50.006;7.490;2022-11-21T16:40:18;5.30;99.90
9151;DHT22;4610;50.006;7.490;2022-11-21T16:42:44;5.00;99.90
9151;DHT22;4610;50.006;7.490;2022-11-21T16:47:38;5.00;99.90
9151;DHT22;4610;50.006;7.490;2022-11-21T16:50:05;5.10;99.90
9151;DHT22;4610;50.006;7.490;2022-11-21T16:52:33;5.20;99.90
9151;DHT22;4610;50.006;7.490;2022-11-21T16:55:01;5.30;99.90
9151;DHT22;4610;50.006;7.490;2022-11-21T16:57:32;5.30;99.90
9151;DHT22;4610;50.006;7.490;2022-11-21T17:09:50;5.30;99.90
9151;DHT22;4610;50.006;7.490;2022-11-21T17:12:17;5.60;99.90
9151;DHT22;4610;50.006;7.490;2022-11-21T17:14:47;5.10;99.90
9151;DHT22;4610;50.006;7.490;2022-11-21T17:17:14;5.30;99.90
9151;DHT22;4610;50.006;7.490;2022-11-21T17:19:41;5.10;99.90
9151;DHT22;4610;50.006;7.490;2022-11-21T17:22:08;5.90;99.90
9151;DHT22;4610;50.006;7.490;2022-11-21T17:24:35;5.30;99.90
9151;DHT22;4610;50.006;7.490;2022-11-21T17:27:02;5.20;99.90
9151;DHT22;4610;50.006;7.490;2022-11-21T17:29:29;5.20;99.90
9151;DHT22;4610;50.006;7.490;2022-11-21T17:31:57;5.30;99.90
9151;DHT22;4610;50.006;7.490;2022-11-21T17:34:24;5.20;99.90
9151;DHT22;4610;50.006;7.490;2022-11-21T17:36:51;5.20;99.90
9151;DHT22;4610;50.006;7.490;2022-11-21T17:44:12;5.50;99.90
9151;DHT22;4610;50.006;7.490;2022-11-21T17:46:40;5.50;99.90
9151;DHT22;4610;50.006;7.490;2022-11-21T17:49:09;5.40;99.90
9151;DHT22;4610;50.006;7.490;2022-11-21T17:51:37;5.80;99.90
9151;DHT22;4610;50.006;7.490;2022-11-21T17:54:05;5.40;99.90
9151;DHT22;4610;50.006;7.490;2022-11-21T17:56:35;5.70;99.90
9151;DHT22;4610;50.006;7.490;2022-11-21T17:59:03;5.60;99.90
9151;DHT22;4610;50.006;7.490;2022-11-21T18:01:30;5.70;99.90
9151;DHT22;4610;50.006;7.490;2022-11-21T18:03:58;5.80;99.90
9151;DHT22;4610;50.006;7.490;2022-11-21T18:06:29;5.50;99.90
9151;DHT22;4610;50.006;7.490;2022-11-21T18:08:57;5.40;99.90
9151;DHT22;4610;50.006;7.490;2022-11-21T18:11:27;5.50;99.90
9151;DHT22;4610;50.006;7.490;2022-11-21T18:16:23;5.30;99.90
9151;DHT22;4610;50.006;7.490;2022-11-21T18:21:19;5.50;99.90
9151;DHT22;4610;50.006;7.490;2022-11-21T18:23:48;5.20;99.90
9151;DHT22;4610;50.006;7.490;2022-11-21T18:26:17;5.40;99.90
9151;DHT22;4610;50.006;7.490;2022-11-21T18:28:45;5.30;99.90
9151;DHT22;4610;50.006;7.490;2022-11-21T18:31:15;5.30;99.90
9151;DHT22;4610;50.006;7.490;2022-11-21T18:33:42;5.70;99.90
9151;DHT22;4610;50.006;7.490;2022-11-21T18:36:10;5.90;99.90
9151;DHT22;4610;50.006;7.490;2022-11-21T18:38:38;5.60;99.90
9151;DHT22;4610;50.006;7.490;2022-11-21T18:41:09;5.30;99.90